Terminal Aerodrome Forecast
Issued by NWS

Home | Current Version | Previous Version | Graphics & Text | Print | Product List | Glossary On
Versions: 1 2 3 4 5 6 7 8 9 10 11 12 13
000
FTUS43 KICT 282033 AAA
TAFCNU
TAF AMD
KCNU 282033Z 2821/2918 22010KT P6SM VCTS BKN060CB
      TEMPO 2821/2823 5SM -TSRA BR BKN040CB
     FM282300 24007KT P6SM VCTS SCT050CB BKN080
     FM290400 VRB03KT P6SM SCT100 BKN200=

USA.gov is the U.S. government's official web portal to all federal, state and local government web resources and services.